createdAt,value
2022-08-02T00:00:03.838Z,2.60
2022-08-02T00:02:51.533Z,2.83
2022-08-02T00:05:37.917Z,2.70
2022-08-02T00:08:26.761Z,3.03
2022-08-02T00:11:13.318Z,2.43
2022-08-02T00:13:59.819Z,2.40
2022-08-02T00:16:46.153Z,2.60
2022-08-02T00:19:34.070Z,2.27
2022-08-02T00:22:20.718Z,2.63
2022-08-02T00:25:07.961Z,2.57
2022-08-02T00:27:54.509Z,3.20
2022-08-02T00:30:41.156Z,2.33
2022-08-02T00:34:26.570Z,2.30
2022-08-02T00:36:36.442Z,2.90
2022-08-02T00:39:35.062Z,2.67
2022-08-02T00:42:22.460Z,2.83
2022-08-02T00:45:11.125Z,2.47
2022-08-02T00:47:57.845Z,2.67
2022-08-02T00:50:45.114Z,2.43
2022-08-02T00:53:33.364Z,2.77
2022-08-02T00:56:19.801Z,2.60
2022-08-02T00:59:06.383Z,2.37
2022-08-02T01:01:54.809Z,2.90
2022-08-02T01:04:44.449Z,2.90
2022-08-02T01:07:30.846Z,2.80
2022-08-02T01:10:18.672Z,2.63
2022-08-02T01:13:05.054Z,2.47
2022-08-02T01:15:59.262Z,2.33
2022-08-02T01:18:52.252Z,2.60
2022-08-02T01:21:55.677Z,2.17
2022-08-02T01:25:08.902Z,2.27
2022-08-02T01:28:17.012Z,2.50
2022-08-02T01:31:09.857Z,2.27
2022-08-02T01:34:02.353Z,2.50
2022-08-02T01:36:55.107Z,2.60
2022-08-02T01:39:45.334Z,2.60
2022-08-02T01:42:33.659Z,2.83
2022-08-02T01:45:24.314Z,2.57
2022-08-02T01:48:12.511Z,2.67
2022-08-02T01:51:02.175Z,2.97
2022-08-02T01:53:52.387Z,2.93
2022-08-02T01:56:40.145Z,2.60
2022-08-02T01:59:28.441Z,2.63
2022-08-02T02:02:17.479Z,2.23
2022-08-02T02:05:08.106Z,3.10
2022-08-02T02:07:58.328Z,2.83
2022-08-02T02:10:47.059Z,2.80
2022-08-02T02:13:34.583Z,2.73
2022-08-02T02:16:23.707Z,2.30
2022-08-02T02:19:14.178Z,2.53
2022-08-02T02:22:08.307Z,3.03
2022-08-02T02:24:57.509Z,2.53
2022-08-02T02:27:51.131Z,2.70
2022-08-02T02:30:41.345Z,2.87
2022-08-02T02:33:29.667Z,3.27
2022-08-02T02:36:19.798Z,2.50
2022-08-02T02:39:13.349Z,2.80
2022-08-02T02:42:04.079Z,2.90
2022-08-02T02:44:52.455Z,2.53
2022-08-02T02:47:40.973Z,2.90
2022-08-02T02:50:29.661Z,3.17
2022-08-02T02:53:20.181Z,2.73
2022-08-02T02:56:07.011Z,2.97
2022-08-02T02:58:54.720Z,2.80
2022-08-02T03:01:56.995Z,3.30
2022-08-02T03:04:57.318Z,3.00
2022-08-02T03:07:44.681Z,3.10
2022-08-02T03:10:32.798Z,2.97
2022-08-02T03:13:19.813Z,3.10
2022-08-02T03:16:06.640Z,3.30
2022-08-02T03:18:53.042Z,4.10
2022-08-02T03:21:39.595Z,3.47
2022-08-02T03:24:27.616Z,3.07
2022-08-02T03:27:16.441Z,3.67
2022-08-02T03:30:03.362Z,4.10
2022-08-02T03:32:50.184Z,3.23
2022-08-02T03:35:37.332Z,3.33
2022-08-02T03:38:28.872Z,3.37
2022-08-02T03:41:18.821Z,3.03
2022-08-02T03:44:08.805Z,3.47
2022-08-02T03:46:55.905Z,3.13
2022-08-02T03:49:44.029Z,3.10
2022-08-02T03:52:32.632Z,2.80
2022-08-02T03:55:19.177Z,3.23
2022-08-02T03:58:06.377Z,3.33
2022-08-02T04:00:56.056Z,3.07
2022-08-02T04:03:42.637Z,3.40
2022-08-02T04:06:28.959Z,3.60
2022-08-02T04:09:15.356Z,3.77
2022-08-02T04:12:01.831Z,3.67
2022-08-02T04:14:48.148Z,3.40
2022-08-02T04:17:40.129Z,4.40
2022-08-02T04:20:32.597Z,3.70
2022-08-02T04:23:19.577Z,4.50
2022-08-02T04:26:07.961Z,3.40
2022-08-02T04:28:57.923Z,3.10
2022-08-02T04:31:45.112Z,3.63
2022-08-02T04:34:33.152Z,3.70
2022-08-02T04:37:19.667Z,3.47
2022-08-02T04:40:10.559Z,3.80
2022-08-02T04:42:57.198Z,3.07
2022-08-02T04:45:44.457Z,4.07
2022-08-02T04:48:31.279Z,3.67
2022-08-02T04:51:18.865Z,3.43
2022-08-02T04:54:09.229Z,3.70
2022-08-02T04:56:56.925Z,3.73
2022-08-02T04:59:43.355Z,3.60
2022-08-02T05:02:29.735Z,3.80
2022-08-02T05:05:16.762Z,3.50
2022-08-02T05:08:05.031Z,3.50
2022-08-02T05:10:51.357Z,3.53
2022-08-02T05:13:58.804Z,3.40
2022-08-02T05:16:44.027Z,3.67
2022-08-02T05:19:30.469Z,3.40
2022-08-02T05:22:16.873Z,3.20
2022-08-02T05:25:05.153Z,3.50
2022-08-02T05:27:52.024Z,3.80
2022-08-02T05:30:38.434Z,3.10
2022-08-02T05:33:24.757Z,3.53
2022-08-02T05:36:11.149Z,3.67
2022-08-02T05:38:59.752Z,3.30
2022-08-02T05:41:53.264Z,3.53
2022-08-02T05:44:39.642Z,2.93
2022-08-02T05:47:26.189Z,3.30
2022-08-02T05:50:12.881Z,3.10
2022-08-02T05:53:06.851Z,3.10
2022-08-02T05:56:18.553Z,3.20
2022-08-02T05:59:14.698Z,2.90
2022-08-02T06:02:16.336Z,3.30
2022-08-02T06:05:12.375Z,3.50
2022-08-02T06:08:00.810Z,3.17
2022-08-02T06:10:48.981Z,2.90
2022-08-02T06:13:36.072Z,3.23
2022-08-02T06:16:32.586Z,2.90
2022-08-02T06:19:20.849Z,3.03
2022-08-02T06:22:32.444Z,3.17
2022-08-02T06:25:50.997Z,2.97
2022-08-02T06:28:31.246Z,3.40
2022-08-02T06:31:17.969Z,3.03
2022-08-02T06:34:05.685Z,3.00
2022-08-02T06:37:00.893Z,3.40
2022-08-02T06:39:50.269Z,2.50
2022-08-02T06:42:49.485Z,2.97
2022-08-02T06:45:36.126Z,2.73
2022-08-02T06:48:22.501Z,3.07
2022-08-02T06:51:10.328Z,3.47
2022-08-02T06:53:56.827Z,3.60
2022-08-02T06:56:43.111Z,3.70
2022-08-02T06:59:29.605Z,3.40
2022-08-02T07:02:15.824Z,2.83
2022-08-02T07:05:03.497Z,3.50
2022-08-02T07:07:51.517Z,4.30
2022-08-02T07:10:38.065Z,4.30
2022-08-02T07:13:24.413Z,4.20
2022-08-02T07:16:10.878Z,4.00
2022-08-02T07:18:57.290Z,4.17
2022-08-02T07:21:57.140Z,3.90
2022-08-02T07:24:48.088Z,3.70
2022-08-02T07:27:35.312Z,4.53
2022-08-02T07:30:21.669Z,4.53
2022-08-02T07:33:08.275Z,4.70
2022-08-02T07:36:22.327Z,4.33
2022-08-02T07:39:09.493Z,4.90
2022-08-02T07:41:58.581Z,4.30
2022-08-02T07:44:49.060Z,4.10
2022-08-02T07:47:37.870Z,4.53
2022-08-02T07:50:24.531Z,3.90
2022-08-02T07:53:10.983Z,4.50
2022-08-02T07:55:57.507Z,4.50
2022-08-02T07:58:45.358Z,4.00
2022-08-02T08:01:32.093Z,4.53
2022-08-02T08:04:19.465Z,4.40
2022-08-02T08:07:07.655Z,3.90
2022-08-02T08:09:56.558Z,4.33
2022-08-02T08:12:43.298Z,5.13
2022-08-02T08:15:31.280Z,4.60
2022-08-02T08:18:17.839Z,4.17
2022-08-02T08:21:04.188Z,3.57
2022-08-02T08:23:51.271Z,3.90
2022-08-02T08:26:39.743Z,3.90
2022-08-02T08:29:27.509Z,3.80
2022-08-02T08:32:17.439Z,2.80
2022-08-02T08:35:06.951Z,3.00
2022-08-02T08:37:53.359Z,3.20
2022-08-02T08:40:42.085Z,3.37
2022-08-02T08:43:28.627Z,2.73
2022-08-02T08:46:25.302Z,3.00
2022-08-02T08:49:19.577Z,3.00
2022-08-02T08:52:07.875Z,2.80
2022-08-02T08:54:59.275Z,2.80
2022-08-02T08:57:46.500Z,3.30
2022-08-02T09:00:35.491Z,2.73
2022-08-02T09:03:21.800Z,3.13
2022-08-02T09:06:09.603Z,2.83
2022-08-02T09:08:56.141Z,3.60
2022-08-02T09:11:42.571Z,3.40
2022-08-02T09:14:32.680Z,2.97
2022-08-02T09:17:21.444Z,2.67
2022-08-02T09:20:09.705Z,2.93
2022-08-02T09:23:08.757Z,3.53
2022-08-02T09:26:02.448Z,3.00
2022-08-02T09:28:52.386Z,3.17
2022-08-02T09:31:41.691Z,3.40
2022-08-02T09:34:50.034Z,2.93
2022-08-02T09:37:36.852Z,2.57
2022-08-02T09:40:37.203Z,2.77
2022-08-02T09:43:35.962Z,2.90
2022-08-02T09:46:24.714Z,2.93
2022-08-02T09:49:13.304Z,2.30
2022-08-02T09:52:02.559Z,1.60
2022-08-02T09:54:49.145Z,2.23
2022-08-02T09:57:38.624Z,2.27
2022-08-02T10:00:37.452Z,2.30
2022-08-02T10:03:35.125Z,2.47
2022-08-02T10:06:24.246Z,2.10
2022-08-02T10:09:13.324Z,2.37
2022-08-02T10:12:00.898Z,2.70
2022-08-02T10:14:51.821Z,2.73
2022-08-02T10:17:39.345Z,2.40
2022-08-02T10:20:26.220Z,2.97
2022-08-02T10:23:15.150Z,2.60
2022-08-02T10:26:04.273Z,2.47
2022-08-02T10:28:51.475Z,2.50
2022-08-02T10:31:44.487Z,2.70
2022-08-02T10:34:37.052Z,2.37
2022-08-02T10:37:29.616Z,2.00
2022-08-02T10:40:24.113Z,2.30
2022-08-02T10:43:10.449Z,2.20
2022-08-02T10:46:23.427Z,1.87
2022-08-02T10:49:38.121Z,1.80
2022-08-02T10:52:21.796Z,1.60
2022-08-02T10:55:14.589Z,2.10
2022-08-02T10:58:18.971Z,1.73
2022-08-02T11:01:07.017Z,1.63
2022-08-02T11:04:00.476Z,1.60
2022-08-02T11:07:14.925Z,2.00
2022-08-02T11:10:37.948Z,2.00
2022-08-02T11:13:26.442Z,2.20
2022-08-02T11:16:14.722Z,2.70
2022-08-02T11:19:06.713Z,2.30
2022-08-02T11:22:02.411Z,2.17
2022-08-02T11:24:51.129Z,2.67
2022-08-02T11:27:37.717Z,2.57
2022-08-02T11:30:26.557Z,2.00
2022-08-02T11:33:13.800Z,2.20
2022-08-02T11:36:05.193Z,2.07
2022-08-02T11:38:59.897Z,2.37
2022-08-02T11:41:53.012Z,2.40
2022-08-02T11:44:44.119Z,2.60
2022-08-02T11:47:31.595Z,2.70
2022-08-02T11:50:20.566Z,2.67
2022-08-02T11:53:17.218Z,2.60
2022-08-02T11:56:03.903Z,2.30
2022-08-02T11:59:06.101Z,2.23
2022-08-02T12:01:52.573Z,2.20
2022-08-02T12:04:39.900Z,2.40
2022-08-02T12:07:34.765Z,2.50
2022-08-02T12:10:24.349Z,2.23
2022-08-02T12:13:10.756Z,2.30
2022-08-02T12:16:19.184Z,2.50
2022-08-02T12:19:19.641Z,2.60
2022-08-02T12:22:13.564Z,2.57
2022-08-02T12:25:00.440Z,2.60
2022-08-02T12:27:47.224Z,2.70
2022-08-02T12:30:51.514Z,2.50
2022-08-02T12:33:49.073Z,2.50
2022-08-02T12:36:35.673Z,3.03
2022-08-02T12:39:22.159Z,2.60
2022-08-02T12:42:10.613Z,2.63
2022-08-02T12:44:59.176Z,2.23
2022-08-02T12:47:47.043Z,1.90
2022-08-02T12:50:37.543Z,2.53
2022-08-02T12:53:32.701Z,2.30
2022-08-02T12:56:28.915Z,2.63
2022-08-02T12:59:15.659Z,2.17
2022-08-02T13:02:04.330Z,2.30
2022-08-02T13:04:51.166Z,2.37
2022-08-02T13:07:39.109Z,2.60
2022-08-02T13:10:26.029Z,2.23
2022-08-02T13:13:12.809Z,2.30
2022-08-02T13:15:59.310Z,2.17
2022-08-02T13:18:46.309Z,2.43
2022-08-02T13:21:41.355Z,2.17
2022-08-02T13:24:56.609Z,1.90
2022-08-02T13:27:43.789Z,2.20
2022-08-02T13:30:30.248Z,2.13
2022-08-02T13:33:17.556Z,2.10
2022-08-02T13:36:04.123Z,2.20
2022-08-02T13:38:56.113Z,1.90
2022-08-02T13:41:43.909Z,2.50
2022-08-02T13:44:30.548Z,2.10
2022-08-02T13:47:26.607Z,1.90
2022-08-02T13:50:23.045Z,2.00
2022-08-02T13:53:11.945Z,2.37
2022-08-02T13:55:58.955Z,2.30
2022-08-02T13:58:46.705Z,2.10
2022-08-02T14:01:33.694Z,2.00
2022-08-02T14:04:20.516Z,2.20
2022-08-02T14:07:06.814Z,2.00
2022-08-02T14:09:53.191Z,2.15
2022-08-02T14:12:39.555Z,2.20
2022-08-02T14:15:30.220Z,2.45
2022-08-02T14:18:17.196Z,2.38
2022-08-02T14:21:03.754Z,1.98
2022-08-02T14:23:51.098Z,2.10
2022-08-02T14:26:37.923Z,2.47
2022-08-02T14:29:24.683Z,2.30
2022-08-02T14:32:12.656Z,2.20
2022-08-02T14:34:59.589Z,2.30
2022-08-02T14:37:46.065Z,1.98
2022-08-02T14:40:32.479Z,2.58
2022-08-02T14:43:32.835Z,2.50
2022-08-02T14:46:19.511Z,2.53
2022-08-02T14:49:07.825Z,2.50
2022-08-02T14:51:55.207Z,2.70
2022-08-02T14:54:43.143Z,2.28
2022-08-02T14:57:29.716Z,2.63
2022-08-02T15:00:17.849Z,2.58
2022-08-02T15:03:04.633Z,3.15
2022-08-02T15:05:57.054Z,2.78
2022-08-02T15:08:44.232Z,2.70
2022-08-02T15:11:31.097Z,2.70
2022-08-02T15:14:34.868Z,2.67
2022-08-02T15:17:21.340Z,2.50
2022-08-02T15:20:25.308Z,2.80
2022-08-02T15:23:14.045Z,2.92
2022-08-02T15:26:00.738Z,2.88
2022-08-02T15:28:47.213Z,3.15
2022-08-02T15:31:42.356Z,2.45
2022-08-02T15:34:28.646Z,1.98
2022-08-02T15:37:15.206Z,2.20
2022-08-02T15:40:03.284Z,2.45
2022-08-02T15:42:49.717Z,2.30
2022-08-02T15:45:36.400Z,2.20
2022-08-02T15:48:23.024Z,1.95
2022-08-02T15:51:09.766Z,2.20
2022-08-02T15:53:56.121Z,1.90
2022-08-02T15:56:43.881Z,2.50
2022-08-02T15:59:30.536Z,2.80
2022-08-02T16:02:19.042Z,2.35
2022-08-02T16:05:13.987Z,2.30
2022-08-02T16:08:00.728Z,2.30
2022-08-02T16:10:47.192Z,2.72
2022-08-02T16:13:54.894Z,2.28
2022-08-02T16:16:41.669Z,2.30
2022-08-02T16:19:46.623Z,2.25
2022-08-02T16:22:35.021Z,2.25
2022-08-02T16:25:21.462Z,2.80
2022-08-02T16:28:08.311Z,2.67
2022-08-02T16:31:10.428Z,3.22
2022-08-02T16:33:58.274Z,2.85
2022-08-02T16:36:45.623Z,2.70
2022-08-02T16:39:32.165Z,2.80
2022-08-02T16:42:25.554Z,2.90
2022-08-02T16:45:14.053Z,2.50
2022-08-02T16:48:05.414Z,2.72
2022-08-02T16:50:52.382Z,3.25
2022-08-02T16:53:40.023Z,3.30
2022-08-02T16:56:46.899Z,2.97
2022-08-02T16:59:42.663Z,3.22
2022-08-02T17:02:30.219Z,3.42
2022-08-02T17:05:18.314Z,2.95
2022-08-02T17:08:17.209Z,3.15
2022-08-02T17:11:04.324Z,3.35
2022-08-02T17:13:50.957Z,3.10
2022-08-02T17:16:37.462Z,3.20
2022-08-02T17:19:26.939Z,2.95
2022-08-02T17:22:15.000Z,3.38
2022-08-02T17:25:04.685Z,3.50
2022-08-02T17:27:55.608Z,3.33
2022-08-02T17:30:42.684Z,2.88
2022-08-02T17:33:31.700Z,3.15
2022-08-02T17:36:19.223Z,3.45
2022-08-02T17:39:08.310Z,3.50
2022-08-02T17:41:55.921Z,3.22
2022-08-02T17:44:49.032Z,3.13
2022-08-02T17:50:48.868Z,3.03
2022-08-02T17:53:36.197Z,2.78
2022-08-02T17:56:24.411Z,2.97
2022-08-02T17:59:12.292Z,2.78
2022-08-02T18:02:07.296Z,2.97
2022-08-02T18:04:55.446Z,2.58
2022-08-02T18:07:51.864Z,3.28
2022-08-02T18:10:40.858Z,2.58
2022-08-02T18:13:33.052Z,2.97
2022-08-02T18:16:22.535Z,2.60
2022-08-02T18:19:16.731Z,3.17
2022-08-02T18:22:04.444Z,2.95
2022-08-02T18:24:52.287Z,2.88
2022-08-02T18:27:39.244Z,3.25
2022-08-02T18:30:28.274Z,2.72
2022-08-02T18:33:59.848Z,2.90
2022-08-02T18:36:24.608Z,2.80
2022-08-02T18:39:11.777Z,3.60
2022-08-02T18:41:58.261Z,2.83
2022-08-02T18:44:48.640Z,3.40
2022-08-02T18:47:36.417Z,2.90
2022-08-02T18:50:23.141Z,2.92
2022-08-02T18:53:14.222Z,2.80
2022-08-02T18:56:03.729Z,2.75
2022-08-02T18:58:50.447Z,2.80
2022-08-02T19:01:48.616Z,3.00
2022-08-02T19:04:43.535Z,2.85
2022-08-02T19:07:50.893Z,2.90
2022-08-02T19:10:49.056Z,2.95
2022-08-02T19:13:42.301Z,2.80
2022-08-02T19:16:36.627Z,2.70
2022-08-02T19:19:28.906Z,3.30
2022-08-02T19:22:20.036Z,3.40
2022-08-02T19:25:09.273Z,2.97
2022-08-02T19:28:03.105Z,3.80
2022-08-02T19:30:50.545Z,3.20
2022-08-02T19:34:06.353Z,3.03
2022-08-02T19:36:44.677Z,4.17
2022-08-02T19:39:32.346Z,4.40
2022-08-02T19:42:26.636Z,4.07
2022-08-02T19:45:13.989Z,4.10
2022-08-02T19:48:05.437Z,4.30
2022-08-02T19:50:56.230Z,5.07
2022-08-02T19:53:46.557Z,4.43
2022-08-02T19:56:36.889Z,4.50
2022-08-02T19:59:23.629Z,4.57
2022-08-02T20:02:18.346Z,4.27
2022-08-02T20:05:08.072Z,3.87
2022-08-02T20:08:03.351Z,4.37
2022-08-02T20:10:51.356Z,4.63
2022-08-02T20:13:47.189Z,4.57
2022-08-02T20:16:35.397Z,3.57
2022-08-02T20:19:22.339Z,4.53
2022-08-02T20:22:09.482Z,3.93
2022-08-02T20:24:56.143Z,3.80
2022-08-02T20:27:51.286Z,3.90
2022-08-02T20:30:39.780Z,4.60
2022-08-02T20:33:26.318Z,4.00
2022-08-02T20:36:12.730Z,3.70
2022-08-02T20:39:01.137Z,3.93
2022-08-02T20:41:51.878Z,3.50
2022-08-02T20:44:43.974Z,3.87
2022-08-02T20:47:39.206Z,3.40
2022-08-02T20:50:44.019Z,3.10
2022-08-02T20:53:31.065Z,3.80
2022-08-02T20:56:17.534Z,3.70
2022-08-02T20:59:15.561Z,4.00
2022-08-02T21:02:02.933Z,3.77
2022-08-02T21:04:51.073Z,3.50
2022-08-02T21:07:37.705Z,3.53
2022-08-02T21:10:24.567Z,3.60
2022-08-02T21:13:19.013Z,3.43
2022-08-02T21:16:09.288Z,3.70
2022-08-02T21:19:00.081Z,3.30
2022-08-02T21:21:48.014Z,3.67
2022-08-02T21:24:35.460Z,3.77
2022-08-02T21:27:51.656Z,3.97
2022-08-02T21:30:29.695Z,4.07
2022-08-02T21:33:23.222Z,3.80
2022-08-02T21:36:10.196Z,3.70
2022-08-02T21:38:58.436Z,4.10
2022-08-02T21:41:46.255Z,3.70
2022-08-02T21:44:52.133Z,4.07
2022-08-02T21:47:39.089Z,3.70
2022-08-02T21:50:25.694Z,4.40
2022-08-02T21:53:13.286Z,4.43
2022-08-02T21:56:07.097Z,4.37
2022-08-02T21:58:56.548Z,3.70
2022-08-02T22:01:52.667Z,4.27
2022-08-02T22:04:41.426Z,4.40
2022-08-02T22:07:38.167Z,4.37
2022-08-02T22:10:25.507Z,4.50
2022-08-02T22:13:14.468Z,4.40
2022-08-02T22:16:03.608Z,4.60
2022-08-02T22:18:52.662Z,4.63
2022-08-02T22:21:54.815Z,4.23
2022-08-02T22:24:41.849Z,4.63
2022-08-02T22:28:12.006Z,4.33
2022-08-02T22:30:36.794Z,4.30
2022-08-02T22:33:42.269Z,4.10
2022-08-02T22:36:34.968Z,4.37
2022-08-02T22:39:25.512Z,5.13
2022-08-02T22:42:15.428Z,4.30
2022-08-02T22:45:01.928Z,4.43
2022-08-02T22:48:01.502Z,5.10
2022-08-02T22:50:48.100Z,5.20
2022-08-02T22:53:35.398Z,5.00
2022-08-02T22:56:22.938Z,4.70
2022-08-02T22:58:48.753Z,3.25
2022-08-02T23:02:05.509Z,4.90
2022-08-02T23:04:53.550Z,5.20
2022-08-02T23:07:40.317Z,4.63
2022-08-02T23:10:26.716Z,4.60
2022-08-02T23:13:13.160Z,4.47
2022-08-02T23:16:17.395Z,4.97
2022-08-02T23:19:21.518Z,4.53
2022-08-02T23:22:09.410Z,4.13
2022-08-02T23:24:56.612Z,4.67
2022-08-02T23:27:50.883Z,4.97
2022-08-02T23:30:38.531Z,4.60
2022-08-02T23:33:24.988Z,4.73
2022-08-02T23:36:11.277Z,4.23
2022-08-02T23:38:59.734Z,5.20
2022-08-02T23:41:54.794Z,4.70
2022-08-02T23:44:42.137Z,4.20
2022-08-02T23:47:28.957Z,5.27
2022-08-02T23:50:15.244Z,4.87
2022-08-02T23:53:01.720Z,4.87
2022-08-02T23:55:49.525Z,4.57
2022-08-02T23:58:36.157Z,5.20
